Dauntless Aviation
Airports North America United States Colorado
98CO

NCMC HELIPORT

GREELEY, CO, USA

Airport Info
Suggest Updated Information for this Airport

Location

Latitude / Longitude: 40°24'53"N / 104°42'28"W
  40°24.9'N / 104°42.4667'W
  40.4150 / -104.7078
Elevation: 4882 ft. (estimated)
Variation: 12E (1985)
From city: 00 miles N of GREELEY, CO

Operations

Facility use: Private
Sectional chart: DENVER
Control tower: no
Boundary ARTCC: DENVER
FSS: DENVER [1-800-WX-BRIEF]
Segmented circle: no

Communications

Nearby radio navigation aids

VOR radial/distance VOR name Freq Var
GLL 233oT/8.9 GILL VORTAC 114.20 13E
DVV 353oT/31.5 MILE HIGH VORTAC 114.70 11E
BJC 33oT/36.1 JEFFCO VOR/DME 115.40 11E
DEN 357oT/36.2 DENVER VOR/DME 117.90 11E
 
NDB name Hdg/Dist Freq Var ID

Services

Runway Information

Helipad H1

Dimensions: 40 x 40 ft.
Surface: PORTLAND CEMENT CONCRETE,NO SPECIAL SURFACE TREATMENT
 

Additional Remarks

Instrument Procedures

No published instrument procedures available
Topographic chart at:
Satellite photo at:
Airport distance calculator
From:
Weather Reports

METAR

KGXY
4.2nm NE
KGXY 241505Z AUTO 04015G21KT 10SM BKN012 OVC018 M03/M06 A2960 RMK AO2 FZRANO
KFNL
14.3nm W
KFNL 241515Z 03006KT 2 1/2SM M03/M03 A2958 RMK AO2 PWINO FZRANO RVRNO
KLMO
25.8nm SW
KLMO 241513Z AUTO 04004KT 10SM OVC024 M01/M04 A2957 RMK AO2 T10121039
KEIK
28.6nm S
KEIK 241514Z AUTO 00000KT 10SM BKN020 BKN027 M04/M05 A2955 RMK AO2 T10401051
KBDU
33.3nm SW
KBDU 241516Z AUTO 00000KT 10SM CLR M01/M07 A2954 RMK AO2
KDEN
34.0nm SE
KDEN 241523Z 36008KT 1 1/2SM BR OVC005 M01/M02 A2953 RMK AO2 SFC VIS 4 T10061022

TAF

KDEN
34.0nm SE
KDEN 241527Z 2415/2518 01013KT P6SM VCSH BKN009 BKN013 TEMPO 2415/2418 1 1/2SM -SN BR FM241900 02012G20KT P6SM SCT020 BKN040 OVC060 FM242300 03011KT P6SM VCSH SCT025 BKN050 OVC080 FM250300 36009KT P6SM SCT020 BKN050 FM250800 22007KT P6SM SCT040 BKN080 FM251200 22008KT P6SM SCT080 BKN120
KBJC
35.8nm S
KBJC 241507Z 2415/2512 02005KT P6SM SCT018 BKN080 FM241530 01012G20KT P6SM VCSH SCT008 BKN015 OVC025 TEMPO 2416/2418 2SM -SHSN FM242200 03011KT P6SM VCSH SCT020 BKN035 OVC050 FM250300 36009KT P6SM SCT020 BKN040 OVC080 FM250800 22007KT P6SM SCT040 BKN080
Safelog

 

Dauntless Aviation

© 2007-2017 Dauntless Aviation, all rights reserved
Information provided via PilotNav comes from a variety of official and unofficial data sources. As errors are possible, do not use PilotNav for primary flight planning purposes. Verify any information that you receive via PilotNav with current and canonical charts and other official documents. The material in this database is subject to database copyrights held by Dauntless Aviation and may not be copied without the express permission of Dauntless Aviation - licenses for use of part of all of this data are available for purchase; enquire via the Dauntless Aviation helpdesk. A number of mechanisms and markers exist in the database to protect against and identify infringement / copyright. Automated queries against this website are stictly prohibited, and all activity is logged and analyzed.